createdAt,value
2017-04-16T00:00:23.608Z,0.05
2017-04-16T00:01:33.860Z,0.02
2017-04-16T00:02:44.106Z,-0.1
2017-04-16T00:03:54.505Z,0.06
2017-04-16T00:05:04.756Z,-0.02
2017-04-16T00:06:15.008Z,0.06
2017-04-16T00:07:25.261Z,0
2017-04-16T00:08:35.513Z,0.01
2017-04-16T00:09:46.065Z,0.06
2017-04-16T00:10:56.320Z,-0.05
2017-04-16T00:12:06.567Z,-0.07
2017-04-16T00:13:16.825Z,0
2017-04-16T00:14:27.073Z,0.05
2017-04-16T00:15:40.692Z,0.08
2017-04-16T00:16:50.939Z,0.06
2017-04-16T00:18:01.199Z,0.05
2017-04-16T00:19:11.453Z,0.09
2017-04-16T00:20:21.702Z,0.09
2017-04-16T00:21:32.391Z,0.06
2017-04-16T00:22:42.502Z,0.06
2017-04-16T00:23:52.788Z,0.09
2017-04-16T00:25:03.037Z,-0.02
2017-04-16T00:26:12.984Z,0.08
2017-04-16T00:27:23.237Z,0
2017-04-16T00:28:33.492Z,0.06
2017-04-16T00:29:43.748Z,-0.03
2017-04-16T00:30:54.008Z,-0.12
2017-04-16T00:32:04.259Z,-0.03
2017-04-16T00:33:14.507Z,0.01
2017-04-16T00:34:24.761Z,-0.09
2017-04-16T00:35:34.699Z,-0.1
2017-04-16T00:36:44.947Z,-0.05
2017-04-16T00:37:55.204Z,-0.09
2017-04-16T00:39:05.463Z,-0.09
2017-04-16T00:40:15.713Z,-0.17
2017-04-16T00:41:25.976Z,-0.07
2017-04-16T00:42:36.233Z,-0.06
2017-04-16T00:43:46.487Z,-0.13
2017-04-16T00:44:56.735Z,-0.1
2017-04-16T00:46:06.995Z,-0.1
2017-04-16T00:47:17.259Z,-0.15
2017-04-16T00:48:27.514Z,-0.13
2017-04-16T00:49:37.771Z,-0.12
2017-04-16T00:50:48.080Z,-0.12
2017-04-16T00:51:58.333Z,-0.06
2017-04-16T00:53:08.584Z,0
2017-04-16T00:54:18.842Z,-0.06
2017-04-16T00:55:29.096Z,-0.02
2017-04-16T00:56:39.340Z,0.01
2017-04-16T00:57:49.595Z,0.02
2017-04-16T00:58:59.849Z,0.06
2017-04-16T01:00:10.120Z,0.02
2017-04-16T01:01:20.385Z,0.06
2017-04-16T01:02:30.643Z,-0.1
2017-04-16T01:03:40.892Z,0.05
2017-04-16T01:04:51.150Z,-0.03
2017-04-16T01:06:01.405Z,0.11
2017-04-16T01:07:11.656Z,0
2017-04-16T01:08:21.912Z,-0.07
2017-04-16T01:09:32.164Z,0.01
2017-04-16T01:10:42.103Z,0.09
2017-04-16T01:11:52.358Z,0.09
2017-04-16T01:13:02.608Z,0.12
2017-04-16T01:14:12.861Z,0.06
2017-04-16T01:15:22.650Z,0
2017-04-16T01:16:32.906Z,0.09
2017-04-16T01:17:43.158Z,-0.07
2017-04-16T01:18:53.418Z,0
2017-04-16T01:20:03.664Z,0.08
2017-04-16T01:21:13.920Z,0.01
2017-04-16T01:22:24.186Z,0.06
2017-04-16T01:23:34.445Z,-0.06
2017-04-16T01:24:44.698Z,0.12
2017-04-16T01:25:54.948Z,-0.03
2017-04-16T01:27:05.205Z,0.05
2017-04-16T01:28:15.460Z,0.06
2017-04-16T01:29:25.711Z,0.06
2017-04-16T01:30:35.968Z,0.09
2017-04-16T01:31:46.219Z,0.08
2017-04-16T01:32:56.156Z,0.08
2017-04-16T01:34:06.406Z,0.05
2017-04-16T01:35:16.657Z,0.09
2017-04-16T01:36:26.916Z,0.05
2017-04-16T01:37:37.175Z,0.18
2017-04-16T01:38:47.122Z,0.16
2017-04-16T01:39:57.056Z,0.2
2017-04-16T01:41:06.992Z,0.13
2017-04-16T01:42:17.242Z,0.13
2017-04-16T01:43:27.541Z,0.2
2017-04-16T01:44:37.789Z,0.08
2017-04-16T01:45:47.534Z,0.06
2017-04-16T01:46:57.872Z,0.08
2017-04-16T01:48:07.864Z,0.05
2017-04-16T01:49:18.116Z,0.11
2017-04-16T01:50:28.363Z,0.06
2017-04-16T01:51:38.609Z,-0.05
2017-04-16T01:52:48.548Z,0.08
2017-04-16T01:53:58.490Z,-0.02
2017-04-16T01:55:08.741Z,0.01
2017-04-16T01:56:18.994Z,-0.07
2017-04-16T01:57:29.247Z,-0.05
2017-04-16T01:58:39.215Z,-0.15
2017-04-16T01:59:49.472Z,-0.12
2017-04-16T02:00:59.744Z,-0.2
2017-04-16T02:02:09.992Z,-0.13
2017-04-16T02:03:20.243Z,-0.31
2017-04-16T02:04:30.491Z,-0.27
2017-04-16T02:05:40.747Z,-0.28
2017-04-16T02:06:50.830Z,-0.42
2017-04-16T02:08:01.079Z,-0.44
2017-04-16T02:09:11.333Z,-0.33
2017-04-16T02:10:21.597Z,-0.42
2017-04-16T02:11:31.846Z,-0.44
2017-04-16T02:12:43.981Z,-0.59
2017-04-16T02:13:54.029Z,-0.53
2017-04-16T02:15:04.295Z,-0.46
2017-04-16T02:16:14.545Z,-0.59
2017-04-16T02:17:24.796Z,-0.62
2017-04-16T02:18:37.246Z,-0.66
2017-04-16T02:19:47.509Z,-0.66
2017-04-16T02:20:57.762Z,-0.74
2017-04-16T02:22:08.015Z,-0.77
2017-04-16T02:23:17.953Z,-0.77
2017-04-16T02:24:30.206Z,-0.93
2017-04-16T02:25:40.457Z,-0.82
2017-04-16T02:26:50.709Z,-0.87
2017-04-16T02:28:00.969Z,-0.89
2017-04-16T02:29:11.228Z,-0.82
2017-04-16T02:30:21.483Z,-0.87
2017-04-16T02:31:31.766Z,-0.89
2017-04-16T02:32:42.014Z,-0.89
2017-04-16T02:33:52.276Z,-0.75
2017-04-16T02:35:02.531Z,-0.85
2017-04-16T02:36:12.805Z,-0.84
2017-04-16T02:37:23.084Z,-0.75
2017-04-16T02:38:33.212Z,-0.72
2017-04-16T02:39:43.403Z,-0.75
2017-04-16T02:40:53.818Z,-0.66
2017-04-16T02:42:04.072Z,-0.67
2017-04-16T02:43:14.321Z,-0.59
2017-04-16T02:44:24.577Z,-0.59
2017-04-16T02:45:34.837Z,-0.56
2017-04-16T02:46:45.094Z,-0.62
2017-04-16T02:47:55.351Z,-0.48
2017-04-16T02:49:05.610Z,-0.49
2017-04-16T02:50:15.869Z,-0.45
2017-04-16T02:51:26.120Z,-0.44
2017-04-16T02:52:36.382Z,-0.36
2017-04-16T02:53:46.645Z,-0.44
2017-04-16T02:54:56.897Z,-0.39
2017-04-16T02:56:06.841Z,-0.46
2017-04-16T02:57:17.094Z,-0.38
2017-04-16T02:58:27.034Z,-0.36
2017-04-16T02:59:37.294Z,-0.36
2017-04-16T03:00:47.548Z,-0.48
2017-04-16T03:01:57.809Z,-0.46
2017-04-16T03:03:08.057Z,-0.46
2017-04-16T03:04:18.306Z,-0.53
2017-04-16T03:05:28.567Z,-0.56
2017-04-16T03:06:38.514Z,-0.54
2017-04-16T03:07:48.760Z,-0.53
2017-04-16T03:08:59.118Z,-0.48
2017-04-16T03:10:09.367Z,-0.59
2017-04-16T03:11:19.624Z,-0.63
2017-04-16T03:12:29.574Z,-0.59
2017-04-16T03:13:39.933Z,-0.57
2017-04-16T03:14:50.188Z,-0.72
2017-04-16T03:16:00.437Z,-0.72
2017-04-16T03:17:10.690Z,-0.74
2017-04-16T03:18:20.948Z,-0.75
2017-04-16T03:19:31.201Z,-0.72
2017-04-16T03:20:41.457Z,-0.77
2017-04-16T03:21:51.717Z,-0.75
2017-04-16T03:23:01.969Z,-0.77
2017-04-16T03:24:12.227Z,-0.74
2017-04-16T03:25:22.487Z,-0.84
2017-04-16T03:26:32.741Z,-0.89
2017-04-16T03:27:42.989Z,-0.89
2017-04-16T03:28:53.243Z,-0.85
2017-04-16T03:30:03.501Z,-0.91
2017-04-16T03:31:13.444Z,-0.89
2017-04-16T03:32:23.689Z,-0.96
2017-04-16T03:33:33.945Z,-0.97
2017-04-16T03:34:44.209Z,-1
2017-04-16T03:35:54.482Z,-1.04
2017-04-16T03:37:04.737Z,-0.99
2017-04-16T03:38:15.019Z,-1.03
2017-04-16T03:39:24.962Z,-1.01
2017-04-16T03:40:34.921Z,-1.01
2017-04-16T03:41:45.220Z,-1.06
2017-04-16T03:42:55.532Z,-1.09
2017-04-16T03:44:05.783Z,-1.09
2017-04-16T03:45:15.742Z,-1.12
2017-04-16T03:46:25.989Z,-1.04
2017-04-16T03:47:36.243Z,-1.01
2017-04-16T03:48:46.496Z,-0.99
2017-04-16T03:49:56.119Z,-0.94
2017-04-16T03:51:06.371Z,-0.87
2017-04-16T03:52:16.618Z,-0.85
2017-04-16T03:53:26.867Z,-0.91
2017-04-16T03:54:37.131Z,-0.89
2017-04-16T03:55:47.390Z,-0.93
2017-04-16T03:56:57.643Z,-0.89
2017-04-16T03:58:07.921Z,-0.91
2017-04-16T03:59:18.188Z,-0.85
2017-04-16T04:00:28.437Z,-0.89
2017-04-16T04:01:38.686Z,-0.84
2017-04-16T04:02:48.937Z,-0.77
2017-04-16T04:03:58.884Z,-0.74
2017-04-16T04:05:09.138Z,-0.63
2017-04-16T04:06:19.383Z,-0.63
2017-04-16T04:07:29.009Z,-0.57
2017-04-16T04:08:39.273Z,-0.6
2017-04-16T04:09:49.527Z,-0.64
2017-04-16T04:10:59.785Z,-0.66
2017-04-16T04:12:09.735Z,-0.66
2017-04-16T04:13:20.161Z,-0.74
2017-04-16T04:14:30.776Z,-0.7
2017-04-16T04:15:40.754Z,-0.7
2017-04-16T04:16:51.169Z,-0.72
2017-04-16T04:18:01.436Z,-0.74
2017-04-16T04:19:11.697Z,-0.78
2017-04-16T04:20:21.954Z,-0.82
2017-04-16T04:21:32.202Z,-0.81
2017-04-16T04:22:42.454Z,-0.82
2017-04-16T04:23:52.720Z,-0.72
2017-04-16T04:25:02.657Z,-0.77
2017-04-16T04:26:12.905Z,-0.67
2017-04-16T04:27:23.160Z,-0.72
2017-04-16T04:28:33.419Z,-0.69
2017-04-16T04:29:43.679Z,-0.74
2017-04-16T04:30:53.930Z,-0.74
2017-04-16T04:32:04.176Z,-0.74
2017-04-16T04:33:14.116Z,-0.75
2017-04-16T04:34:24.059Z,-0.75
2017-04-16T04:35:34.306Z,-0.78
2017-04-16T04:36:44.556Z,-0.66
2017-04-16T04:37:54.501Z,-0.56
2017-04-16T04:39:04.754Z,-0.54
2017-04-16T04:40:15.005Z,-0.57
2017-04-16T04:41:24.944Z,-0.57
2017-04-16T04:42:35.201Z,-0.53
2017-04-16T04:43:45.463Z,-0.6
2017-04-16T04:44:55.726Z,-0.62
2017-04-16T04:46:05.972Z,-0.62
2017-04-16T04:47:15.910Z,-0.51
2017-04-16T04:48:26.311Z,-0.54
2017-04-16T04:49:36.564Z,-0.6
2017-04-16T04:50:46.259Z,-0.57
2017-04-16T04:51:56.579Z,-0.64
2017-04-16T04:53:06.841Z,-0.53
2017-04-16T04:54:16.809Z,-0.63
2017-04-16T04:55:27.060Z,-0.6
2017-04-16T04:56:37.309Z,-0.62
2017-04-16T04:57:47.244Z,-0.51
2017-04-16T04:58:57.499Z,-0.48
2017-04-16T05:00:07.444Z,-0.46
2017-04-16T05:01:17.699Z,-0.56
2017-04-16T05:02:27.948Z,-0.38
2017-04-16T05:03:38.198Z,-0.41
2017-04-16T05:04:48.458Z,-0.41
2017-04-16T05:05:58.719Z,-0.38
2017-04-16T05:07:08.977Z,-0.35
2017-04-16T05:08:19.234Z,-0.48
2017-04-16T05:09:29.174Z,-0.39
2017-04-16T05:10:39.422Z,-0.39
2017-04-16T05:11:49.676Z,-0.41
2017-04-16T05:12:59.621Z,-0.33
2017-04-16T05:14:09.880Z,-0.28
2017-04-16T05:15:20.141Z,-0.33
2017-04-16T05:16:30.399Z,-0.26
2017-04-16T05:17:40.661Z,-0.2
2017-04-16T05:18:50.612Z,-0.21
2017-04-16T05:20:00.868Z,-0.18
2017-04-16T05:21:11.453Z,-0.13
2017-04-16T05:22:21.706Z,-0.13
2017-04-16T05:23:32.058Z,-0.17
2017-04-16T05:24:42.320Z,-0.15
2017-04-16T05:25:52.568Z,-0.1
2017-04-16T05:27:02.816Z,-0.03
2017-04-16T05:28:13.073Z,0.06
2017-04-16T05:29:23.008Z,0.02
2017-04-16T05:30:33.254Z,0.12
2017-04-16T05:31:43.495Z,0.01
2017-04-16T05:32:53.756Z,0.01
2017-04-16T05:34:04.009Z,0.08
2017-04-16T05:35:13.951Z,0.15
2017-04-16T05:36:24.209Z,0.16
2017-04-16T05:37:34.152Z,0.13
2017-04-16T05:38:44.414Z,0.26
2017-04-16T05:39:54.676Z,0.26
2017-04-16T05:41:04.932Z,0.3
2017-04-16T05:42:15.180Z,0.34
2017-04-16T05:43:25.441Z,0.36
2017-04-16T05:44:35.698Z,0.44
2017-04-16T05:45:45.951Z,0.4
2017-04-16T05:46:56.199Z,0.34
2017-04-16T05:48:05.826Z,0.36
2017-04-16T05:49:15.772Z,0.51
2017-04-16T05:50:26.025Z,0.45
2017-04-16T05:51:36.365Z,0.48
2017-04-16T05:52:46.647Z,0.47
2017-04-16T05:53:57.039Z,0.49
2017-04-16T05:55:07.298Z,0.66
2017-04-16T05:56:17.556Z,0.55
2017-04-16T05:57:27.498Z,0.64
2017-04-16T05:58:37.775Z,0.67
2017-04-16T05:59:48.029Z,0.7
2017-04-16T06:00:58.277Z,0.68
2017-04-16T06:02:08.532Z,0.78
2017-04-16T06:03:18.791Z,0.76
2017-04-16T06:04:29.038Z,0.81
2017-04-16T06:05:39.288Z,0.74
2017-04-16T06:06:49.551Z,0.89
2017-04-16T06:07:59.814Z,0.96
2017-04-16T06:09:10.073Z,1
2017-04-16T06:10:20.335Z,1.02
2017-04-16T06:11:30.591Z,1.14
2017-04-16T06:12:40.846Z,1.16
2017-04-16T06:13:51.099Z,1.18
2017-04-16T06:15:01.355Z,1.2
2017-04-16T06:16:11.295Z,1.18
2017-04-16T06:17:21.545Z,1.24
2017-04-16T06:18:31.798Z,1.31
2017-04-16T06:19:41.736Z,1.38
2017-04-16T06:20:51.988Z,1.42
2017-04-16T06:22:02.243Z,1.53
2017-04-16T06:23:12.494Z,1.67
2017-04-16T06:24:22.755Z,1.6
2017-04-16T06:25:33.008Z,1.75
2017-04-16T06:26:43.261Z,1.74
2017-04-16T06:27:53.523Z,1.7
2017-04-16T06:29:03.472Z,1.85
2017-04-16T06:30:13.731Z,1.79
2017-04-16T06:31:23.982Z,1.93
2017-04-16T06:32:34.235Z,1.89
2017-04-16T06:33:44.177Z,2
2017-04-16T06:34:54.436Z,2.05
2017-04-16T06:36:04.880Z,2.15
2017-04-16T06:37:15.280Z,2.19
2017-04-16T06:38:25.669Z,2.32
2017-04-16T06:39:35.927Z,2.39
2017-04-16T06:40:46.189Z,2.43
2017-04-16T06:41:56.133Z,2.46
2017-04-16T06:43:06.397Z,2.54
2017-04-16T06:44:16.659Z,2.59
2017-04-16T06:45:26.604Z,2.7
2017-04-16T06:46:36.855Z,2.61
2017-04-16T06:47:47.115Z,2.73
2017-04-16T06:48:57.367Z,2.58
2017-04-16T06:50:07.309Z,2.65
2017-04-16T06:51:17.566Z,2.64
2017-04-16T06:52:27.828Z,2.75
2017-04-16T06:53:38.092Z,2.69
2017-04-16T06:54:48.361Z,2.73
2017-04-16T06:55:58.617Z,2.77
2017-04-16T06:57:08.900Z,2.76
2017-04-16T06:58:19.151Z,2.76
2017-04-16T06:59:29.406Z,2.79
2017-04-16T07:00:39.665Z,2.69
2017-04-16T07:01:49.928Z,2.83
2017-04-16T07:03:00.185Z,2.77
2017-04-16T07:04:10.449Z,2.88
2017-04-16T07:05:20.710Z,2.9
2017-04-16T07:06:30.967Z,2.95
2017-04-16T07:07:41.231Z,2.9
2017-04-16T07:08:51.515Z,2.9
2017-04-16T07:10:01.780Z,2.91
2017-04-16T07:11:12.040Z,2.98
2017-04-16T07:12:21.975Z,2.91
2017-04-16T07:13:32.233Z,2.97
2017-04-16T07:14:42.497Z,2.97
2017-04-16T07:15:52.978Z,3.05
2017-04-16T07:17:03.366Z,3.05
2017-04-16T07:18:13.628Z,3.12
2017-04-16T07:19:23.885Z,3.16
2017-04-16T07:20:34.142Z,3.19
2017-04-16T07:21:44.393Z,3.11
2017-04-16T07:22:54.650Z,3.16
2017-04-16T07:24:04.590Z,3.16
2017-04-16T07:25:14.848Z,3.21
2017-04-16T07:26:24.782Z,3.16
2017-04-16T07:27:35.039Z,3.22
2017-04-16T07:28:45.298Z,3.31
2017-04-16T07:29:55.563Z,3.31
2017-04-16T07:31:05.504Z,3.4
2017-04-16T07:32:15.761Z,3.46
2017-04-16T07:33:25.710Z,3.33
2017-04-16T07:34:35.975Z,3.36
2017-04-16T07:35:46.227Z,3.27
2017-04-16T07:36:56.490Z,3.41
2017-04-16T07:38:06.746Z,3.43
2017-04-16T07:39:17.013Z,3.46
2017-04-16T07:40:27.276Z,3.48
2017-04-16T07:41:37.529Z,3.58
2017-04-16T07:42:47.789Z,3.64
2017-04-16T07:43:58.050Z,3.71
2017-04-16T07:45:07.999Z,3.68
2017-04-16T07:46:18.254Z,3.81
2017-04-16T07:47:28.515Z,3.94
2017-04-16T07:48:38.772Z,4
2017-04-16T07:49:49.034Z,3.99
2017-04-16T07:50:59.449Z,3.99
2017-04-16T07:52:09.718Z,4.09
2017-04-16T07:53:19.990Z,4.12
2017-04-16T07:54:30.186Z,4.24
2017-04-16T07:55:40.454Z,4.24
2017-04-16T07:56:50.844Z,4.3
2017-04-16T07:58:01.100Z,4.3
2017-04-16T07:59:11.361Z,4.42
2017-04-16T08:00:21.632Z,4.49
2017-04-16T08:01:31.883Z,4.52
2017-04-16T08:02:42.142Z,4.52
2017-04-16T08:03:52.402Z,4.68
2017-04-16T08:05:02.348Z,4.76
2017-04-16T08:06:12.295Z,4.83
2017-04-16T08:07:22.242Z,4.86
2017-04-16T08:08:32.191Z,4.95
2017-04-16T08:09:42.451Z,5
2017-04-16T08:10:52.706Z,5.04
2017-04-16T08:12:02.962Z,5.01
2017-04-16T08:13:12.912Z,5.15
2017-04-16T08:14:23.178Z,5.15
2017-04-16T08:15:33.441Z,5.1
2017-04-16T08:16:43.697Z,5.25
2017-04-16T08:17:53.961Z,5.2
2017-04-16T08:19:04.230Z,5.2
2017-04-16T08:20:14.482Z,5.22
2017-04-16T08:21:24.742Z,5.26
2017-04-16T08:22:34.995Z,5.22
2017-04-16T08:23:45.261Z,5.29
2017-04-16T08:24:55.522Z,5.26
2017-04-16T08:26:05.783Z,5.29
2017-04-16T08:27:16.046Z,5.37
2017-04-16T08:28:25.987Z,5.44
2017-04-16T08:29:36.270Z,5.4
2017-04-16T08:30:46.526Z,5.37
2017-04-16T08:31:56.779Z,5.49
2017-04-16T08:33:07.050Z,5.47
2017-04-16T08:34:17.309Z,5.61
2017-04-16T08:35:27.405Z,5.58
2017-04-16T08:36:37.926Z,5.52
2017-04-16T08:37:47.959Z,5.54
2017-04-16T08:38:58.218Z,5.52
2017-04-16T08:40:08.478Z,5.49
2017-04-16T08:41:18.746Z,5.49
2017-04-16T08:42:29.005Z,5.56
2017-04-16T08:43:39.274Z,5.46
2017-04-16T08:44:49.536Z,5.46
2017-04-16T08:45:59.796Z,5.46
2017-04-16T08:47:10.068Z,5.49
2017-04-16T08:48:20.007Z,5.61
2017-04-16T08:49:30.277Z,5.64
2017-04-16T08:50:40.539Z,5.64
2017-04-16T08:51:50.833Z,5.56
2017-04-16T08:53:01.094Z,5.55
2017-04-16T08:54:10.729Z,5.64
2017-04-16T08:55:20.994Z,5.72
2017-04-16T08:56:30.946Z,5.7
2017-04-16T08:57:41.198Z,5.79
2017-04-16T08:58:51.457Z,5.81
2017-04-16T09:00:01.720Z,5.94
2017-04-16T09:01:11.359Z,5.88
2017-04-16T09:02:21.623Z,5.99
2017-04-16T09:03:31.897Z,5.98
2017-04-16T09:04:41.842Z,5.87
2017-04-16T09:05:52.103Z,5.88
2017-04-16T09:07:02.359Z,5.94
2017-04-16T09:08:12.626Z,6.07
2017-04-16T09:09:22.895Z,6.19
2017-04-16T09:10:33.157Z,6.39
2017-04-16T09:11:43.422Z,6.49
2017-04-16T09:12:53.923Z,6.49
2017-04-16T09:14:04.188Z,6.52
2017-04-16T09:15:14.451Z,6.67
2017-04-16T09:16:24.709Z,6.62
2017-04-16T09:17:34.980Z,6.68
2017-04-16T09:18:45.244Z,6.7
2017-04-16T09:19:55.510Z,6.62
2017-04-16T09:21:05.772Z,6.54
2017-04-16T09:22:15.716Z,6.57
2017-04-16T09:23:25.667Z,6.56
2017-04-16T09:24:35.930Z,6.47
2017-04-16T09:25:46.191Z,6.38
2017-04-16T09:26:56.455Z,6.31
2017-04-16T09:28:06.722Z,6.22
2017-04-16T09:29:16.671Z,6.15
2017-04-16T09:30:26.930Z,6.12
2017-04-16T09:31:37.188Z,6.16
2017-04-16T09:32:47.448Z,6.1
2017-04-16T09:33:57.726Z,6.26
2017-04-16T09:35:07.985Z,6.16
2017-04-16T09:36:18.249Z,6.15
2017-04-16T09:37:28.513Z,6.15
2017-04-16T09:38:38.779Z,6.1
2017-04-16T09:39:49.042Z,6.15
2017-04-16T09:40:59.326Z,6.15
2017-04-16T09:42:09.598Z,6.17
2017-04-16T09:43:19.538Z,6.15
2017-04-16T09:44:29.789Z,6.1
2017-04-16T09:45:40.049Z,6.07
2017-04-16T09:46:50.312Z,5.98
2017-04-16T09:48:00.605Z,6.05
2017-04-16T09:49:10.882Z,6.06
2017-04-16T09:50:20.829Z,5.97
2017-04-16T09:51:31.086Z,6.1
2017-04-16T09:52:41.343Z,6.05
2017-04-16T09:53:51.613Z,6.16
2017-04-16T09:55:01.871Z,6.2
2017-04-16T09:56:12.128Z,6.15
2017-04-16T09:57:22.388Z,6.28
2017-04-16T09:58:32.339Z,6.52
2017-04-16T09:59:42.612Z,6.56
2017-04-16T10:00:52.872Z,6.47
2017-04-16T10:02:02.513Z,6.47
2017-04-16T10:03:12.776Z,6.54
2017-04-16T10:04:23.038Z,6.62
2017-04-16T10:05:33.298Z,6.59
2017-04-16T10:06:43.243Z,6.67
2017-04-16T10:07:53.256Z,6.59
2017-04-16T10:09:03.556Z,6.56
2017-04-16T10:10:13.810Z,6.62
2017-04-16T10:11:24.078Z,6.59
2017-04-16T10:12:34.355Z,6.56
2017-04-16T10:13:44.613Z,6.54
2017-04-16T10:14:54.875Z,6.49
2017-04-16T10:16:05.145Z,6.32
2017-04-16T10:17:15.090Z,6.16
2017-04-16T10:18:25.356Z,6.13
2017-04-16T10:19:35.636Z,6.15
2017-04-16T10:20:45.591Z,5.95
2017-04-16T10:21:55.847Z,5.99
2017-04-16T10:23:06.114Z,5.94
2017-04-16T10:24:16.526Z,5.69
2017-04-16T10:25:26.786Z,5.67
2017-04-16T10:26:37.044Z,5.64
2017-04-16T10:27:46.674Z,5.72
2017-04-16T10:28:56.629Z,5.59
2017-04-16T10:30:06.576Z,5.51
2017-04-16T10:31:16.836Z,5.43
2017-04-16T10:32:27.100Z,5.31
2017-04-16T10:33:37.355Z,5.36
2017-04-16T10:34:47.638Z,5.19
2017-04-16T10:35:57.578Z,5.22
2017-04-16T10:37:07.830Z,5.16
2017-04-16T10:38:17.776Z,5.22
2017-04-16T10:39:27.748Z,5.19
2017-04-16T10:40:38.007Z,5.12
2017-04-16T10:41:48.267Z,5.02
2017-04-16T10:42:58.536Z,5.04
2017-04-16T10:44:08.801Z,5.02
2017-04-16T10:45:19.058Z,5.02
2017-04-16T10:46:29.316Z,4.98
2017-04-16T10:47:39.583Z,4.95
2017-04-16T10:48:49.848Z,4.98
2017-04-16T10:50:00.111Z,4.78
2017-04-16T10:51:10.367Z,4.74
2017-04-16T10:52:20.629Z,4.75
2017-04-16T10:53:30.887Z,4.63
2017-04-16T10:54:40.998Z,4.66
2017-04-16T10:55:51.256Z,4.74
2017-04-16T10:57:01.518Z,4.71
2017-04-16T10:58:11.797Z,4.76
2017-04-16T10:59:21.769Z,4.92
2017-04-16T11:00:32.038Z,4.9
2017-04-16T11:01:42.294Z,5.04
2017-04-16T11:02:52.556Z,5.07
2017-04-16T11:04:02.836Z,5.12
2017-04-16T11:05:13.091Z,5.15
2017-04-16T11:06:23.352Z,5.25
2017-04-16T11:07:33.614Z,5.38
2017-04-16T11:08:43.890Z,5.59
2017-04-16T11:09:54.155Z,5.62
2017-04-16T11:11:04.414Z,5.8
2017-04-16T11:12:14.355Z,5.84
2017-04-16T11:13:24.621Z,5.98
2017-04-16T11:14:34.884Z,5.87
2017-04-16T11:15:45.148Z,5.81
2017-04-16T11:16:55.401Z,5.8
2017-04-16T11:18:05.347Z,5.79
2017-04-16T11:19:15.608Z,5.73
2017-04-16T11:20:25.864Z,5.67
2017-04-16T11:21:36.126Z,5.8
2017-04-16T11:22:46.395Z,5.74
2017-04-16T11:23:56.911Z,5.65
2017-04-16T11:25:07.291Z,5.58
2017-04-16T11:26:17.549Z,5.46
2017-04-16T11:27:28.007Z,5.33
2017-04-16T11:28:38.285Z,5.37
2017-04-16T11:29:48.552Z,5.15
2017-04-16T11:30:58.811Z,5.1
2017-04-16T11:32:09.080Z,5.04
2017-04-16T11:33:19.338Z,5.02
2017-04-16T11:34:29.594Z,5
2017-04-16T11:35:39.543Z,4.95
2017-04-16T11:36:49.799Z,4.94
2017-04-16T11:38:00.051Z,4.89
2017-04-16T11:39:10.313Z,4.83
2017-04-16T11:40:20.571Z,4.83
2017-04-16T11:41:30.832Z,4.83
2017-04-16T11:42:41.084Z,4.84
2017-04-16T11:43:51.346Z,4.94
2017-04-16T11:45:01.601Z,4.82
2017-04-16T11:46:11.854Z,4.78
2017-04-16T11:47:21.800Z,4.66
2017-04-16T11:48:32.071Z,4.61
2017-04-16T11:49:42.030Z,4.49
2017-04-16T11:50:52.279Z,4.48
2017-04-16T11:52:02.531Z,4.6
2017-04-16T11:53:12.472Z,4.64
2017-04-16T11:54:22.722Z,4.58
2017-04-16T11:55:32.981Z,4.67
2017-04-16T11:56:43.235Z,4.74
2017-04-16T11:57:53.911Z,4.67
2017-04-16T11:59:04.310Z,4.76
2017-04-16T12:00:14.773Z,4.67
2017-04-16T12:01:25.033Z,4.67
2017-04-16T12:02:35.285Z,4.49
2017-04-16T12:03:45.558Z,4.5
2017-04-16T12:04:55.817Z,4.5
2017-04-16T12:06:06.137Z,4.57
2017-04-16T12:07:16.086Z,4.75
2017-04-16T12:08:26.346Z,4.76
2017-04-16T12:09:36.620Z,4.92
2017-04-16T12:10:46.567Z,5
2017-04-16T12:11:56.826Z,4.92
2017-04-16T12:13:07.082Z,4.94
2017-04-16T12:14:17.338Z,5.02
2017-04-16T12:15:27.596Z,5.04
2017-04-16T12:16:37.850Z,5.02
2017-04-16T12:17:48.110Z,5.01
2017-04-16T12:18:57.752Z,5.15
2017-04-16T12:20:08.009Z,5.18
2017-04-16T12:21:18.273Z,5.23
2017-04-16T12:22:27.903Z,5.25
2017-04-16T12:23:38.161Z,5.31
2017-04-16T12:24:48.424Z,5.33
2017-04-16T12:25:58.374Z,5.22
2017-04-16T12:27:08.327Z,5.28
2017-04-16T12:28:18.757Z,5.38
2017-04-16T12:29:28.702Z,5.31
2017-04-16T12:30:39.064Z,5.4
2017-04-16T12:31:49.325Z,5.46
2017-04-16T12:32:59.655Z,5.54
2017-04-16T12:34:09.934Z,5.67
2017-04-16T12:35:20.196Z,5.61
2017-04-16T12:36:30.450Z,5.46
2017-04-16T12:37:40.712Z,5.56
2017-04-16T12:38:50.973Z,5.67
2017-04-16T12:40:01.248Z,5.7
2017-04-16T12:41:11.507Z,5.81
2017-04-16T12:42:21.457Z,5.81
2017-04-16T12:43:31.719Z,5.72
2017-04-16T12:44:41.988Z,5.74
2017-04-16T12:45:52.253Z,5.74
2017-04-16T12:47:02.196Z,5.8
2017-04-16T12:48:12.456Z,5.79
2017-04-16T12:49:22.739Z,5.79
2017-04-16T12:50:32.997Z,5.7
2017-04-16T12:51:43.257Z,5.84
2017-04-16T12:52:53.512Z,5.67
2017-04-16T12:54:03.457Z,5.73
2017-04-16T12:55:13.723Z,5.67
2017-04-16T12:56:23.986Z,5.77
2017-04-16T12:57:34.246Z,5.8
2017-04-16T12:58:44.497Z,5.87
2017-04-16T12:59:54.458Z,5.97
2017-04-16T13:01:04.718Z,5.94
2017-04-16T13:02:14.665Z,5.91
2017-04-16T13:03:24.615Z,6.01
2017-04-16T13:04:34.879Z,5.91
2017-04-16T13:05:45.134Z,5.94
2017-04-16T13:06:55.169Z,5.83
2017-04-16T13:08:05.429Z,5.67
2017-04-16T13:09:15.697Z,5.64
2017-04-16T13:10:25.953Z,5.59
2017-04-16T13:11:35.923Z,5.52
2017-04-16T13:12:46.185Z,5.56
2017-04-16T13:13:56.446Z,5.49
2017-04-16T13:15:06.710Z,5.44
2017-04-16T13:16:16.966Z,5.47
2017-04-16T13:17:26.908Z,5.52
2017-04-16T13:18:37.165Z,5.54
2017-04-16T13:19:47.423Z,5.52
2017-04-16T13:20:57.053Z,5.56
2017-04-16T13:22:07.314Z,5.56
2017-04-16T13:23:17.566Z,5.56
2017-04-16T13:24:27.833Z,5.61
2017-04-16T13:25:38.092Z,5.52
2017-04-16T13:26:48.351Z,5.65
2017-04-16T13:27:58.612Z,5.54
2017-04-16T13:29:08.602Z,5.58
2017-04-16T13:30:18.863Z,5.7
2017-04-16T13:31:29.120Z,5.54
2017-04-16T13:32:39.378Z,5.64
2017-04-16T13:33:49.339Z,5.61
2017-04-16T13:34:59.592Z,5.62
2017-04-16T13:36:09.858Z,5.65
2017-04-16T13:37:20.118Z,5.61
2017-04-16T13:38:30.379Z,5.72
2017-04-16T13:39:40.956Z,5.72
2017-04-16T13:40:50.901Z,5.84
2017-04-16T13:42:01.167Z,5.83
2017-04-16T13:43:11.114Z,6.01
2017-04-16T13:44:21.059Z,5.98
2017-04-16T13:45:31.009Z,6.07
2017-04-16T13:46:41.268Z,6.05
2017-04-16T13:47:50.899Z,6.09
2017-04-16T13:49:01.158Z,6.02
2017-04-16T13:50:11.422Z,6.09
2017-04-16T13:51:21.681Z,6.26
2017-04-16T13:52:31.660Z,6.34
2017-04-16T13:53:41.917Z,6.32
2017-04-16T13:54:52.185Z,6.15
2017-04-16T13:56:02.445Z,6.35
2017-04-16T13:57:12.391Z,6.34
2017-04-16T13:58:22.655Z,6.35
2017-04-16T13:59:32.606Z,6.32
2017-04-16T14:00:42.865Z,6.36
2017-04-16T14:01:53.154Z,6.47
2017-04-16T14:03:03.414Z,6.49
2017-04-16T14:04:13.712Z,6.53
2017-04-16T14:05:23.968Z,6.46
2017-04-16T14:06:34.257Z,6.35
2017-04-16T14:07:44.524Z,6.34
2017-04-16T14:08:54.798Z,6.32
2017-04-16T14:10:05.063Z,6.34
2017-04-16T14:11:15.322Z,6.32
2017-04-16T14:12:25.705Z,6.34
2017-04-16T14:13:35.875Z,6.31
2017-04-16T14:14:46.333Z,6.38
2017-04-16T14:15:56.587Z,6.34
2017-04-16T14:17:06.847Z,6.29
2017-04-16T14:18:17.109Z,6.31
2017-04-16T14:19:27.376Z,6.28
2017-04-16T14:20:37.640Z,6.34
2017-04-16T14:21:47.903Z,6.15
2017-04-16T14:22:58.168Z,6.26
2017-04-16T14:24:08.122Z,6.15
2017-04-16T14:25:18.390Z,6.09
2017-04-16T14:26:28.337Z,6.01
2017-04-16T14:27:38.602Z,6.06
2017-04-16T14:28:48.867Z,6.1
2017-04-16T14:29:59.131Z,6.05
2017-04-16T14:31:09.390Z,5.97
2017-04-16T14:32:19.651Z,5.98
2017-04-16T14:33:29.909Z,5.92
2017-04-16T14:34:40.170Z,6.01
2017-04-16T14:35:50.422Z,5.91
2017-04-16T14:37:00.050Z,5.81
2017-04-16T14:38:09.993Z,5.77
2017-04-16T14:39:19.936Z,5.72
2017-04-16T14:40:30.196Z,5.7
2017-04-16T14:41:40.149Z,5.67
2017-04-16T14:42:50.406Z,5.65
2017-04-16T14:44:00.042Z,5.62
2017-04-16T14:45:10.307Z,5.54
2017-04-16T14:46:20.572Z,5.51
2017-04-16T14:47:30.840Z,5.51
2017-04-16T14:48:40.801Z,5.51
2017-04-16T14:49:51.062Z,5.49
2017-04-16T14:51:01.318Z,5.43
2017-04-16T14:52:11.579Z,5.41
2017-04-16T14:53:21.846Z,5.4
2017-04-16T14:54:32.120Z,5.37
2017-04-16T14:55:42.372Z,5.28
2017-04-16T14:56:52.317Z,5.33
2017-04-16T14:58:02.582Z,5.37
2017-04-16T14:59:12.844Z,5.34
2017-04-16T15:00:23.111Z,5.29
2017-04-16T15:01:33.367Z,5.36
2017-04-16T15:02:43.631Z,5.2
2017-04-16T15:03:53.900Z,5.26
2017-04-16T15:05:04.152Z,5.31
2017-04-16T15:06:14.439Z,5.22
2017-04-16T15:07:24.387Z,5.2
2017-04-16T15:08:34.691Z,5.22
2017-04-16T15:09:44.634Z,5.2
2017-04-16T15:10:54.893Z,5.15
2017-04-16T15:12:05.156Z,5.1
2017-04-16T15:13:15.408Z,5.12
2017-04-16T15:14:25.665Z,5.13
2017-04-16T15:15:35.918Z,5.18
2017-04-16T15:16:45.864Z,5.23
2017-04-16T15:17:56.170Z,5.22
2017-04-16T15:19:06.433Z,5.12
2017-04-16T15:20:16.692Z,5.12
2017-04-16T15:21:27.103Z,5.05
2017-04-16T15:22:37.598Z,5.05
2017-04-16T15:23:47.955Z,5.04
2017-04-16T15:24:58.359Z,5.02
2017-04-16T15:26:08.614Z,4.97
2017-04-16T15:27:18.875Z,4.95
2017-04-16T15:28:28.821Z,4.94
2017-04-16T15:29:39.081Z,4.92